Thunder radar more information blitzortung!


Radar de pluja more information rain snow radar


Visita la nostra xarxa de llocs de meteo:

Template documentation
and downloads

And another site



Wind From: 11-12-2017 11:00 Until: 14:59 warning for: Wind Level: Yellow info button

Pagina Historial Weather Underground text

Diari Resum Octubre 21, 2017 Unitats:  Mètric    Imperial   Tant
« Previous Dia
SegĂźent Dia »
Diari Setmana Mensual Anual Personalitzada
  Maxima: Minima: Media:
Temperatura: 25.3 °C 13.1 °C 20.1 °C
Punt de rosada: 15.8 °C 8.0 °C 14.2 °C
Humitat: 93 % 53 % 70 %
Wind Speed: 14.8 km/h 0.0 km/h 4.3 km/h
RĂ fegues de vent: 14.8 km/h - -
Vent:- - South
Pression baro: 1023.9 hPa 1018.8 hPa -
Precipitacions: 0.0 mm    
Historical Graphs
 
 
Dades de taula per Octubre 21, 2017
Temps Temperatura Punt de rosada Pression baro Vent Wind Speed RĂ fegues de vent Humitat Rainfall Rate (Hourly)
00:03 16.1 °C 13.6 °C 1020.9 hPa NNW 3.7 km/h 3.7 km/h 85 % 0.0 mm
03:50 13.1 °C 12.0 °C 1019.9 hPa Calm     93 % 0.0 mm
04:00 13.3 °C 12.2 °C 1019.9 hPa Calm     93 % 0.0 mm
04:10 13.4 °C 12.1 °C 1019.9 hPa NNE 3.2 km/h 4.8 km/h 92 % 0.0 mm
04:20 13.9 °C 12.6 °C 1019.9 hPa Calm   4.8 km/h 92 % 0.0 mm
04:30 14.3 °C 12.8 °C 1020.9 hPa ENE 1.6 km/h 3.2 km/h 91 % 0.0 mm
04:40 14.6 °C 13.0 °C 1020.9 hPa East 3.2 km/h 6.4 km/h 90 % 0.0 mm
04:50 14.8 °C 12.8 °C 1020.9 hPa ESE 3.2 km/h 4.8 km/h 88 % 0.0 mm
05:00 15.5 °C 13.3 °C 1020.9 hPa East 1.6 km/h 3.2 km/h 87 % 0.0 mm
10:10 16.0 °C 13.5 °C 1020.9 hPa SW 3.7 km/h 3.7 km/h 85 % 0.0 mm
10:11 16.1 °C 13.6 °C 1020.9 hPa SW 1.9 km/h   85 % 0.0 mm
10:13 16.4 °C 13.9 °C 1020.9 hPa Calm     85 % 0.0 mm
10:18 16.4 °C 13.7 °C 1020.9 hPa SW 3.7 km/h 3.7 km/h 84 % 0.0 mm
10:23 16.5 °C 13.8 °C 1020.9 hPa SSW 3.7 km/h   84 % 0.0 mm
10:28 17.3 °C 14.2 °C 1021.9 hPa ESE 3.7 km/h 3.7 km/h 82 % 0.0 mm
10:33 17.6 °C 14.3 °C 1021.9 hPa NNE 3.9 km/h 3.9 km/h 81 % 0.0 mm
10:38 17.6 °C 14.3 °C 1021.9 hPa ENE 3.7 km/h 3.7 km/h 81 % 0.0 mm
10:43 17.4 °C 13.9 °C 1021.9 hPa ESE 3.7 km/h 4.2 km/h 80 % 0.0 mm
10:48 17.7 °C 14.2 °C 1021.9 hPa ESE 3.7 km/h 3.7 km/h 80 % 0.0 mm
10:53 18.4 °C 14.7 °C 1021.9 hPa South 3.7 km/h 3.7 km/h 79 % 0.0 mm
10:58 18.5 °C 14.8 °C 1021.9 hPa ENE 3.7 km/h 3.7 km/h 79 % 0.0 mm
11:03 18.9 °C 15.0 °C 1021.9 hPa SSE 3.7 km/h 3.7 km/h 78 % 0.0 mm
11:08 19.3 °C 15.2 °C 1021.9 hPa SE 1.9 km/h   77 % 0.0 mm
11:13 19.4 °C 15.1 °C 1021.9 hPa ESE 3.9 km/h 3.9 km/h 76 % 0.0 mm
11:18 19.3 °C 15.2 °C 1021.9 hPa NE 2.3 km/h 2.3 km/h 77 % 0.0 mm
11:23 19.6 °C 15.4 °C 1021.9 hPa ENE 3.7 km/h 3.7 km/h 77 % 0.0 mm
11:28 19.6 °C 15.4 °C 1021.9 hPa NNE 1.9 km/h 1.9 km/h 77 % 0.0 mm
11:33 19.7 °C 15.3 °C 1021.9 hPa ENE 3.7 km/h 3.7 km/h 76 % 0.0 mm
11:38 20.0 °C 15.4 °C 1021.9 hPa ENE 3.7 km/h 3.7 km/h 75 % 0.0 mm
11:43 19.9 °C 14.9 °C 1021.9 hPa East 5.6 km/h 5.6 km/h 73 % 0.0 mm
11:48 20.1 °C 15.1 °C 1021.9 hPa East 4.7 km/h 4.7 km/h 73 % 0.0 mm
11:53 20.2 °C 15.4 °C 1021.9 hPa ESE 5.6 km/h 5.6 km/h 74 % 0.0 mm
11:58 20.3 °C 15.3 °C 1021.9 hPa NNE 5.6 km/h 5.6 km/h 73 % 0.0 mm
12:03 20.2 °C 15.2 °C 1021.9 hPa NE 3.7 km/h 3.7 km/h 73 % 0.0 mm
12:08 20.4 °C 15.2 °C 1021.9 hPa ENE 3.7 km/h 3.7 km/h 72 % 0.0 mm
12:13 20.7 °C 15.4 °C 1021.9 hPa NE 5.6 km/h 5.6 km/h 72 % 0.0 mm
12:18 20.5 °C 15.1 °C 1021.9 hPa ENE 3.7 km/h 3.7 km/h 71 % 0.0 mm
12:23 20.9 °C 15.4 °C 1021.9 hPa ESE 7.4 km/h 7.4 km/h 71 % 0.0 mm
12:28 20.9 °C 14.8 °C 1021.9 hPa ESE 9.3 km/h 9.3 km/h 68 % 0.0 mm
12:30 24.0 °C 14.7 °C 1018.8 hPa SW 3.2 km/h 4.8 km/h 56 % 0.0 mm
12:33 20.7 °C 15.1 °C 1021.9 hPa NNE 5.8 km/h 5.8 km/h 70 % 0.0 mm
12:38 21.1 °C 15.4 °C 1021.9 hPa ENE 7.4 km/h 7.4 km/h 70 % 0.0 mm
12:40 24.0 °C 14.7 °C 1018.8 hPa SW 4.8 km/h 9.7 km/h 56 % 0.0 mm
12:43 21.3 °C 15.4 °C 1021.9 hPa East 3.7 km/h 3.7 km/h 69 % 0.0 mm
12:48 21.5 °C 15.6 °C 1021.9 hPa ENE 7.9 km/h 7.9 km/h 69 % 0.0 mm
12:53 21.5 °C 15.3 °C 1021.9 hPa NNE 5.8 km/h 5.8 km/h 68 % 0.0 mm
12:58 21.7 °C 15.6 °C 1020.9 hPa ESE 5.3 km/h 5.3 km/h 68 % 0.0 mm
13:03 21.8 °C 15.2 °C 1020.9 hPa ESE 5.6 km/h 5.6 km/h 66 % 0.0 mm
13:08 22.2 °C 15.1 °C 1020.9 hPa SSE 3.7 km/h   64 % 0.0 mm
13:13 22.2 °C 15.3 °C 1020.9 hPa East 7.4 km/h 7.4 km/h 65 % 0.0 mm
13:18 22.2 °C 15.1 °C 1020.9 hPa ENE 5.6 km/h 5.6 km/h 64 % 0.0 mm
13:23 22.4 °C 15.3 °C 1020.9 hPa ENE 6.4 km/h 6.4 km/h 64 % 0.0 mm
13:28 22.4 °C 15.5 °C 1019.9 hPa NW 5.6 km/h 5.6 km/h 65 % 0.0 mm
13:33 22.9 °C 15.7 °C 1019.9 hPa NNW 2.6 km/h   64 % 0.0 mm
13:38 23.0 °C 14.8 °C 1019.9 hPa NW 7.4 km/h 7.4 km/h 60 % 0.0 mm
13:43 23.0 °C 14.6 °C 1019.9 hPa SE 5.6 km/h 5.6 km/h 59 % 0.0 mm
13:48 23.2 °C 15.0 °C 1019.9 hPa ESE 4.7 km/h 4.7 km/h 60 % 0.0 mm
13:53 23.1 °C 14.9 °C 1019.9 hPa ESE 5.6 km/h 5.6 km/h 60 % 0.0 mm
13:58 23.4 °C 14.9 °C 1019.9 hPa SSW 3.7 km/h 4.2 km/h 59 % 0.0 mm
14:03 23.9 °C 15.1 °C 1019.9 hPa SE 7.4 km/h 7.4 km/h 58 % 0.0 mm
14:08 23.7 °C 15.2 °C 1019.9 hPa ENE 5.6 km/h 5.6 km/h 59 % 0.0 mm
14:13 23.7 °C 15.2 °C 1019.9 hPa West 2.6 km/h 2.6 km/h 59 % 0.0 mm
14:18 23.9 °C 15.4 °C 1019.9 hPa ENE 3.7 km/h 3.7 km/h 59 % 0.0 mm
14:23 24.1 °C 15.6 °C 1019.9 hPa SE 7.4 km/h 7.4 km/h 59 % 0.0 mm
14:28 24.3 °C 15.5 °C 1019.9 hPa WSW 9.3 km/h 9.3 km/h 58 % 0.0 mm
14:33 24.3 °C 14.7 °C 1019.9 hPa South 5.6 km/h 5.6 km/h 55 % 0.0 mm
14:38 24.3 °C 14.7 °C 1019.9 hPa South 5.6 km/h 5.6 km/h 55 % 0.0 mm
14:43 24.4 °C 15.3 °C 1019.9 hPa WNW 5.0 km/h 5.0 km/h 57 % 0.0 mm
14:48 24.6 °C 15.8 °C 1019.9 hPa SSW 9.3 km/h 9.3 km/h 58 % 0.0 mm
14:53 24.7 °C 15.3 °C 1019.9 hPa SSW 5.6 km/h 5.6 km/h 56 % 0.0 mm
14:58 24.4 °C 15.3 °C 1018.8 hPa SW 5.6 km/h 5.6 km/h 57 % 0.0 mm
15:03 24.7 °C 15.1 °C 1018.8 hPa SE 5.8 km/h 5.8 km/h 55 % 0.0 mm
15:08 24.6 °C 14.9 °C 1018.8 hPa South 5.6 km/h 5.6 km/h 55 % 0.0 mm
15:13 24.9 °C 15.5 °C 1018.8 hPa WSW 7.4 km/h 7.4 km/h 56 % 0.0 mm
15:18 25.0 °C 14.8 °C 1018.8 hPa SSE 4.7 km/h 4.7 km/h 53 % 0.0 mm
15:23 25.2 °C 15.5 °C 1018.8 hPa WSW 9.3 km/h 9.3 km/h 55 % 0.0 mm
15:28 25.3 °C 15.3 °C 1018.8 hPa South 7.4 km/h 7.4 km/h 54 % 0.0 mm
15:33 25.1 °C 14.8 °C 1018.8 hPa ENE 3.9 km/h 3.9 km/h 53 % 0.0 mm
15:38 24.8 °C 14.8 °C 1018.8 hPa SW 3.7 km/h 3.7 km/h 54 % 0.0 mm
15:43 24.6 °C 14.7 °C 1018.8 hPa North 3.7 km/h 3.7 km/h 54 % 0.0 mm
15:48 24.4 °C 14.5 °C 1018.8 hPa SSE 3.7 km/h 3.7 km/h 54 % 0.0 mm
15:53 24.1 °C 13.9 °C 1018.8 hPa ESE 4.7 km/h 4.7 km/h 53 % 0.0 mm
15:58 24.0 °C 13.8 °C 1018.8 hPa ESE 9.3 km/h 9.3 km/h 53 % 0.0 mm
15:59 24.0 °C 13.8 °C 1018.8 hPa ESE 9.3 km/h 9.3 km/h 53 % 0.0 mm
16:04 23.9 °C 14.0 °C 1018.8 hPa NNE 8.7 km/h 8.7 km/h 54 % 0.0 mm
16:09 23.7 °C 14.1 °C 1018.8 hPa ESE 13.0 km/h 13.0 km/h 55 % 0.0 mm
16:14 23.8 °C 14.2 °C 1018.8 hPa ESE 14.8 km/h 14.8 km/h 55 % 0.0 mm
16:19 23.7 °C 14.1 °C 1018.8 hPa ESE 11.1 km/h 11.1 km/h 55 % 0.0 mm
16:24 23.9 °C 14.3 °C 1018.8 hPa ENE 9.3 km/h 9.3 km/h 55 % 0.0 mm
16:29 23.9 °C 14.3 °C 1018.8 hPa NE 9.0 km/h 9.0 km/h 55 % 0.0 mm
16:34 23.9 °C 14.0 °C 1018.8 hPa ESE 7.4 km/h 7.4 km/h 54 % 0.0 mm
16:39 23.9 °C 14.3 °C 1018.8 hPa ESE 6.1 km/h 6.1 km/h 55 % 0.0 mm
16:44 23.8 °C 14.2 °C 1018.8 hPa East 5.6 km/h 5.6 km/h 55 % 0.0 mm
16:49 24.3 °C 14.7 °C 1018.8 hPa South 5.6 km/h 5.6 km/h 55 % 0.0 mm
16:54 24.3 °C 14.9 °C 1018.8 hPa SSW 5.0 km/h 5.0 km/h 56 % 0.0 mm
16:59 24.3 °C 15.2 °C 1018.8 hPa WSW 6.9 km/h 6.9 km/h 57 % 0.0 mm
17:04 24.5 °C 15.4 °C 1018.8 hPa SW 7.6 km/h 7.6 km/h 57 % 0.0 mm
17:09 24.2 °C 14.9 °C 1018.8 hPa West 7.4 km/h 7.4 km/h 56 % 0.0 mm
17:14 24.4 °C 15.1 °C 1018.8 hPa SW 11.1 km/h 11.1 km/h 56 % 0.0 mm
17:19 24.4 °C 15.1 °C 1018.8 hPa West 9.3 km/h 9.3 km/h 56 % 0.0 mm
17:41 23.9 °C 15.1 °C 1018.8 hPa SSW 5.6 km/h 6.4 km/h 58 % 0.0 mm
17:46 23.7 °C 14.9 °C 1018.8 hPa South 9.3 km/h 9.3 km/h 58 % 0.0 mm
17:51 23.4 °C 14.7 °C 1018.8 hPa SW 9.3 km/h 9.3 km/h 58 % 0.0 mm
17:56 23.1 °C 14.4 °C 1018.8 hPa SW 13.0 km/h 13.0 km/h 58 % 0.0 mm
18:01 22.9 °C 14.4 °C 1018.8 hPa SW 5.6 km/h 5.6 km/h 59 % 0.0 mm
18:06 22.8 °C 14.4 °C 1018.8 hPa WSW 9.5 km/h 9.5 km/h 59 % 0.0 mm
18:11 22.5 °C 14.1 °C 1019.9 hPa SW 5.6 km/h 6.1 km/h 59 % 0.0 mm
18:16 22.3 °C 14.2 °C 1019.9 hPa SW 7.4 km/h 7.4 km/h 60 % 0.0 mm
18:21 22.1 °C 13.9 °C 1019.9 hPa WSW 7.4 km/h 7.4 km/h 60 % 0.0 mm
18:26 21.9 °C 14.3 °C 1019.9 hPa SW 7.4 km/h 7.4 km/h 62 % 0.0 mm
18:31 21.8 °C 14.2 °C 1019.9 hPa SW 9.3 km/h 9.3 km/h 62 % 0.0 mm
18:36 21.6 °C 14.3 °C 1019.9 hPa WSW 7.4 km/h 7.4 km/h 63 % 0.0 mm
18:41 21.4 °C 14.3 °C 1019.9 hPa SSW 5.8 km/h 5.8 km/h 64 % 0.0 mm
18:46 21.2 °C 14.1 °C 1019.9 hPa WSW 9.3 km/h 9.3 km/h 64 % 0.0 mm
18:51 21.1 °C 14.3 °C 1019.9 hPa WSW 5.6 km/h 5.6 km/h 65 % 0.0 mm
18:56 20.9 °C 14.3 °C 1019.9 hPa SW 6.9 km/h 6.9 km/h 66 % 0.0 mm
19:01 20.8 °C 14.2 °C 1019.9 hPa WSW 5.6 km/h 5.6 km/h 66 % 0.0 mm
19:06 20.7 °C 14.3 °C 1019.9 hPa South 9.3 km/h 9.3 km/h 67 % 0.0 mm
19:11 20.6 °C 14.3 °C 1018.8 hPa SW 7.4 km/h 7.4 km/h 67 % 0.0 mm
19:16 20.4 °C 14.3 °C 1018.8 hPa West 7.4 km/h 7.4 km/h 68 % 0.0 mm
19:21 20.3 °C 14.2 °C 1018.8 hPa WSW 5.6 km/h 5.6 km/h 68 % 0.0 mm
19:26 20.2 °C 14.1 °C 1019.9 hPa WSW 7.4 km/h 7.4 km/h 68 % 0.0 mm
19:30 17.8 °C 14.9 °C 1021.9 hPa West 1.6 km/h 3.2 km/h 83 % 0.0 mm
19:31 20.2 °C 14.3 °C 1019.9 hPa WSW 9.3 km/h 9.3 km/h 69 % 0.0 mm
19:36 20.0 °C 14.1 °C 1019.9 hPa SW 3.9 km/h 3.9 km/h 69 % 0.0 mm
19:40 17.9 °C 14.9 °C 1021.9 hPa Calm   1.6 km/h 83 % 0.0 mm
19:41 19.9 °C 14.5 °C 1019.9 hPa SW 4.7 km/h 4.7 km/h 71 % 0.0 mm
19:46 19.8 °C 14.4 °C 1019.9 hPa WSW 3.7 km/h 3.7 km/h 71 % 0.0 mm
19:50 17.9 °C 14.9 °C 1021.9 hPa WSW 1.6 km/h 3.2 km/h 83 % 0.0 mm
19:51 19.7 °C 14.5 °C 1019.9 hPa West 3.7 km/h 3.7 km/h 72 % 0.0 mm
19:56 19.6 °C 14.4 °C 1019.9 hPa SW 3.7 km/h 3.7 km/h 72 % 0.0 mm
20:00 18.0 °C 14.9 °C 1022.9 hPa Calm   3.2 km/h 82 % 0.0 mm
20:01 19.6 °C 14.4 °C 1019.9 hPa SW 3.7 km/h 3.7 km/h 72 % 0.0 mm
20:03 19.6 °C 14.6 °C 1019.9 hPa SW 1.9 km/h 1.9 km/h 73 % 0.0 mm
20:08 19.5 °C 14.6 °C 1019.9 hPa West 2.3 km/h 2.3 km/h 73 % 0.0 mm
20:10 17.9 °C 14.8 °C 1022.9 hPa West 1.6 km/h 3.2 km/h 82 % 0.0 mm
20:18 19.4 °C 14.4 °C 1019.9 hPa Calm     73 % 0.0 mm
20:20 17.9 °C 14.4 °C 1022.9 hPa NW 1.6 km/h 4.8 km/h 80 % 0.0 mm
20:23 19.3 °C 14.3 °C 1019.9 hPa West 1.9 km/h   73 % 0.0 mm
20:28 19.3 °C 14.6 °C 1019.9 hPa NW 1.9 km/h   74 % 0.0 mm
20:30 17.8 °C 13.9 °C 1022.9 hPa West 3.2 km/h 9.7 km/h 78 % 0.0 mm
20:33 19.2 °C 14.4 °C 1019.9 hPa Calm     74 % 0.0 mm
20:38 19.2 °C 14.4 °C 1019.9 hPa NW 1.9 km/h   74 % 0.0 mm
20:43 19.2 °C 14.4 °C 1020.9 hPa West 3.7 km/h 3.7 km/h 74 % 0.0 mm
20:45 18.0 °C 13.5 °C 1022.9 hPa West 3.2 km/h 6.4 km/h 75 % 0.0 mm
20:48 19.1 °C 14.3 °C 1020.9 hPa West 3.7 km/h 3.7 km/h 74 % 0.0 mm
20:53 19.0 °C 14.3 °C 1020.9 hPa WNW 1.9 km/h 1.9 km/h 74 % 0.0 mm
20:55 17.9 °C 13.0 °C 1022.9 hPa West 1.6 km/h 3.2 km/h 73 % 0.0 mm
20:58 19.0 °C 14.3 °C 1020.9 hPa Calm     74 % 0.0 mm
21:03 18.9 °C 14.6 °C 1020.9 hPa Calm     76 % 0.0 mm
21:05 17.8 °C 12.7 °C 1022.9 hPa WNW 1.6 km/h 4.8 km/h 72 % 0.0 mm
21:08 18.8 °C 14.5 °C 1020.9 hPa West 1.9 km/h 1.9 km/h 76 % 0.0 mm
21:13 18.8 °C 14.5 °C 1020.9 hPa WSW 5.0 km/h 5.0 km/h 76 % 0.0 mm
21:15 17.7 °C 12.4 °C 1022.9 hPa WNW 1.6 km/h 3.2 km/h 71 % 0.0 mm
21:18 18.9 °C 14.6 °C 1020.9 hPa West 3.9 km/h 3.9 km/h 76 % 0.0 mm
21:23 18.9 °C 14.6 °C 1020.9 hPa West 5.6 km/h 5.6 km/h 76 % 0.0 mm
21:25 17.4 °C 12.1 °C 1022.9 hPa WNW 3.2 km/h 3.2 km/h 71 % 0.0 mm
21:28 18.9 °C 14.6 °C 1021.9 hPa West 5.0 km/h 5.0 km/h 76 % 0.0 mm
21:33 18.8 °C 14.7 °C 1021.9 hPa WSW 3.7 km/h 3.7 km/h 77 % 0.0 mm
21:35 17.4 °C 11.9 °C 1022.9 hPa West 1.6 km/h 6.4 km/h 70 % 0.0 mm
21:38 18.7 °C 14.6 °C 1021.9 hPa ESE 1.9 km/h   77 % 0.0 mm
21:43 18.5 °C 14.6 °C 1020.9 hPa ESE 5.6 km/h 5.6 km/h 78 % 0.0 mm
21:45 17.2 °C 11.7 °C 1022.9 hPa West 3.2 km/h 4.8 km/h 70 % 0.0 mm
21:48 18.5 °C 14.4 °C 1020.9 hPa West 3.5 km/h 3.5 km/h 77 % 0.0 mm
21:53 18.5 °C 14.6 °C 1020.9 hPa West 1.9 km/h   78 % 0.0 mm
21:58 18.4 °C 14.5 °C 1021.9 hPa Calm     78 % 0.0 mm
22:03 18.3 °C 14.4 °C 1021.9 hPa Calm     78 % 0.0 mm
22:05 17.1 °C 10.7 °C 1022.9 hPa Calm   9.7 km/h 66 % 0.0 mm
22:08 18.2 °C 14.3 °C 1021.9 hPa NE 2.6 km/h 2.6 km/h 78 % 0.0 mm
22:13 18.1 °C 14.4 °C 1021.9 hPa ESE 6.1 km/h 6.1 km/h 79 % 0.0 mm
22:15 17.0 °C 10.6 °C 1022.9 hPa Calm   1.6 km/h 66 % 0.0 mm
22:18 18.1 °C 14.4 °C 1021.9 hPa East 3.7 km/h 3.7 km/h 79 % 0.0 mm
22:23 18.1 °C 14.4 °C 1021.9 hPa East 1.9 km/h 1.9 km/h 79 % 0.0 mm
22:25 16.9 °C 10.5 °C 1022.9 hPa WSW 3.2 km/h 4.8 km/h 66 % 0.0 mm
22:28 18.0 °C 14.3 °C 1021.9 hPa East 3.7 km/h 3.7 km/h 79 % 0.0 mm
22:33 17.9 °C 14.2 °C 1021.9 hPa Calm     79 % 0.0 mm
22:35 16.8 °C 9.9 °C 1022.9 hPa WSW 1.6 km/h 6.4 km/h 64 % 0.0 mm
22:38 17.8 °C 14.1 °C 1021.9 hPa Calm     79 % 0.0 mm
22:43 17.8 °C 14.3 °C 1021.9 hPa Calm     80 % 0.0 mm
22:45 16.7 °C 9.6 °C 1022.9 hPa West 1.6 km/h 3.2 km/h 63 % 0.0 mm
22:48 17.8 °C 14.3 °C 1021.9 hPa East 1.9 km/h 1.9 km/h 80 % 0.0 mm
22:53 17.8 °C 14.3 °C 1021.9 hPa SSW 2.3 km/h 2.3 km/h 80 % 0.0 mm
22:55 16.5 °C 9.4 °C 1022.9 hPa West 3.2 km/h 6.4 km/h 63 % 0.0 mm
22:58 17.7 °C 14.4 °C 1020.9 hPa Calm     81 % 0.0 mm
23:03 17.8 °C 14.5 °C 1020.9 hPa Calm     81 % 0.0 mm
23:05 16.3 °C 9.2 °C 1023.9 hPa WSW 3.2 km/h 3.2 km/h 63 % 0.0 mm
23:08 17.8 °C 14.5 °C 1020.9 hPa Calm     81 % 0.0 mm
23:13 17.8 °C 14.5 °C 1020.9 hPa ENE 1.9 km/h 1.9 km/h 81 % 0.0 mm
23:15 16.1 °C 9.1 °C 1023.9 hPa Calm   3.2 km/h 63 % 0.0 mm
23:18 17.8 °C 14.7 °C 1020.9 hPa Calm     82 % 0.0 mm
23:23 17.7 °C 14.4 °C 1020.9 hPa Calm     81 % 0.0 mm
23:25 16.0 °C 8.9 °C 1023.9 hPa Calm   3.2 km/h 63 % 0.0 mm
23:28 17.7 °C 14.6 °C 1021.9 hPa Calm     82 % 0.0 mm
23:33 17.7 °C 14.6 °C 1021.9 hPa ENE 1.9 km/h   82 % 0.0 mm
23:35 15.8 °C 8.8 °C 1022.9 hPa WSW 4.8 km/h 4.8 km/h 63 % 0.0 mm
23:38 17.7 °C 14.6 °C 1021.9 hPa Calm     82 % 0.0 mm
23:43 17.6 °C 14.5 °C 1021.9 hPa Calm     82 % 0.0 mm
23:45 15.6 °C 8.1 °C 1023.9 hPa West 3.2 km/h 6.4 km/h 61 % 0.0 mm
23:48 17.6 °C 14.5 °C 1021.9 hPa Calm     82 % 0.0 mm
23:53 17.6 °C 14.5 °C 1021.9 hPa Calm     82 % 0.0 mm
23:55 15.5 °C 8.0 °C 1023.9 hPa West 1.6 km/h 4.8 km/h 61 % 0.0 mm
23:58 17.7 °C 14.6 °C 1021.9 hPa ENE 2.6 km/h 2.6 km/h 82 % 0.0 mm
Meteo Sesrovires
Elogis d' Weather Underground - 3.75 mb

Guio original per  Jim McMurry - jmcmurry@mwt.net Adaptat per a la plantilla per  Wim van der Kuil - Leuven-Template.eu

Trobareu la nostra informacio del temps tambe a:

Weather Underground

AWEKAS